Flight Track Log - Related Links

Times and Time Zones

All times are in EST time to prevent confusion due to time zone crossing. See the AAY863 flight status page for this flight to view local times or setup timezone preferences in your user account.

Time Position Orientation Groundspeed Altitude Reporting Facility
EST Latitude Longitude Course Direction KTS MPH feet Rate Location/Type
Sun 08:00:26 PM 41.8658 -91.7731 137° Southeast 154 177 3,700  Level Chicago Center
Sun 08:01:28 PM 41.8058 -91.7725 180° South 231 266 6,400 2,710 Climbing Chicago Center
Sun 08:02:30 PM 41.7217 -91.7289 159° South 274 315 9,300 2,323 Climbing Chicago Center
Sun 08:03:32 PM 41.6386 -91.6864 159° South 317 365 11,200 2,032 Climbing Chicago Center
Sun 08:04:34 PM 41.5417 -91.6297 156° South 375 432 13,500 2,177 Climbing Chicago Center
Sun 08:05:00 PM 41.2581 -91.3083 137° Southeast  Level FlightAware Approximate
Sun 08:05:36 PM 41.4508 -91.5361 142° Southeast 422 486 15,700  Level Chicago Center
Sun 08:06:38 PM 41.3597 -91.4239 137° Southeast 446 513 17,900 2,129 Climbing Chicago Center
Sun 08:07:40 PM 41.2500 -91.2967 139° Southeast 469 540 20,100 1,887 Climbing Chicago Center
Sun 08:08:42 PM 41.1503 -91.1792 138° Southeast 481 554 21,800 1,584 Climbing Chicago Center
Sun 08:09:45 PM 41.0472 -91.0569 138° Southeast 493 567 23,400 1,152 Climbing Chicago Center
Sun 08:10:47 PM 40.9400 -90.9328 139° Southeast 506 582 24,200 1,258 Climbing Chicago Center
Sun 08:11:49 PM 40.8061 -90.7753 138° Southeast 529 609 26,000 1,548 Climbing Chicago Center
Sun 08:12:51 PM 40.6950 -90.6464 139° Southeast 535 616 27,400 1,500 Climbing Chicago Center
Sun 08:13:53 PM 40.5844 -90.5169 138° Southeast 536 617 29,100 1,210 Climbing Chicago Center
Sun 08:14:55 PM 40.4742 -90.3944 140° Southeast 528 608 29,900 919 Climbing Chicago Center
Sun 08:15:57 PM 40.3569 -90.3011 149° Southeast 499 574 31,000 532 Climbing Chicago Center
Sun 08:16:59 PM 40.2144 -90.2028 152° Southeast 488 562 31,000  Level Chicago Center
Sun 08:18:01 PM 40.0939 -90.1175 152° Southeast 493 567 31,000  Level Chicago Center
Sun 08:19:03 PM 39.9736 -90.0333 152° Southeast 494 568 31,000  Level Chicago Center
Sun 08:20:05 PM 39.8536 -89.9506 152° Southeast 490 564 31,000  Level Chicago Center
Sun 08:21:07 PM 39.7325 -89.8658 152° Southeast 495 570 31,000  Level Chicago Center
Sun 08:22:09 PM 39.5892 -89.7681 152° Southeast 488 562 31,000  Level Chicago Center
Sun 08:23:12 PM 39.4700 -89.6881 153° Southeast 484 557 31,000  Level Chicago Center
Sun 08:24:14 PM 39.3511 -89.6050 152° Southeast 485 558 31,000  Level Chicago Center
Sun 08:25:16 PM 39.2311 -89.5267 153° Southeast 485 558 31,000  Level Chicago Center
Sun 08:26:18 PM 39.1003 -89.4392 153° Southeast 486 559 31,000  Level Chicago Center
Sun 08:27:44 PM 38.9358 -89.3308 153° Southeast 488 562 31,000  Level Kansas City Center
Sun 08:28:48 PM 38.8150 -89.2517 153° Southeast 488 562 31,000  Level Kansas City Center
Sun 08:29:48 PM 38.6958 -89.1731 153° Southeast 485 558 31,000  Level Kansas City Center
Sun 08:30:49 PM 38.5508 -89.0778 153° Southeast 485 558 31,000  Level Kansas City Center
Sun 08:31:53 PM 38.4317 -88.9978 152° Southeast 483 556 31,000  Level Kansas City Center
Sun 08:32:54 PM 38.3136 -88.9194 152° Southeast 483 556 31,000  Level Kansas City Center
Sun 08:33:55 PM 38.1933 -88.8411 153° Southeast 483 556 31,000  Level Kansas City Center
Sun 08:34:57 PM 38.0725 -88.7628 153° Southeast 483 556 31,000  Level Kansas City Center
Sun 08:37:01 PM 37.8236 -88.6011 153° Southeast 483 556 31,000  Level Kansas City Center
Sun 08:38:03 PM 37.7022 -88.5231 153° Southeast 484 557 31,000  Level Kansas City Center
Sun 08:39:00 PM 37.5861 -88.4514 154° Southeast 484 557 31,000  Level Memphis Center
Sun 08:40:02 PM 37.4661 -88.3742 153° Southeast 484 557 31,000  Level Memphis Center
Sun 08:41:03 PM 37.3228 -88.2836 153° Southeast 484 557 31,000  Level Memphis Center
Sun 08:42:05 PM 37.2014 -88.2069 153° Southeast 484 557 31,000  Level Memphis Center
Sun 08:43:07 PM 37.0797 -88.1294 153° Southeast 484 557 31,000  Level Memphis Center
Sun 08:44:08 PM 36.9619 -88.0544 153° Southeast 484 557 31,000  Level Memphis Center
Sun 08:45:10 PM 36.8403 -87.9786 153° Southeast 485 558 31,000 242 Level Memphis Center
Sun 08:46:12 PM 36.7197 -87.9031 153° Southeast 484 557 31,500 634 Climbing Memphis Center
Sun 08:47:13 PM 36.5992 -87.8272 153° Southeast 484 557 32,300 732 Climbing Memphis Center
Sun 08:48:15 PM 36.4564 -87.7392 154° Southeast 484 557 33,000 339 Climbing Memphis Center
Sun 08:49:17 PM 36.3381 -87.6656 153° Southeast 481 554 33,000  Level Memphis Center
Sun 08:50:18 PM 36.2183 -87.5931 154° Southeast 480 552 33,000  Level Memphis Center
Sun 08:51:20 PM 36.0978 -87.5181 153° Southeast 480 552 33,000  Level Memphis Center
Sun 08:52:21 PM 35.9786 -87.4456 154° Southeast 479 551 33,000  Level Memphis Center
Sun 08:53:23 PM 35.8594 -87.3756 155° Southeast 476 548 33,000  Level Memphis Center
Sun 08:54:25 PM 35.7411 -87.3019 153° Southeast 475 547 33,000  Level Memphis Center
Sun 08:55:26 PM 35.6225 -87.2303 154° Southeast 475 547 33,000  Level Memphis Center
Sun 08:56:28 PM 35.4839 -87.1469 154° Southeast 475 547 33,000  Level Memphis Center
Sun 08:57:30 PM 35.3769 -87.0819 154° Southeast 475 547 33,000  Level Memphis Center
Sun 08:58:31 PM 35.2592 -87.0103 154° Southeast 475 547 33,000  Level Memphis Center
Sun 08:59:33 PM 35.1433 -86.9419 154° Southeast 467 537 33,000  Level Memphis Center
Sun 09:00:35 PM 35.0039 -86.8586 154° Southeast 465 535 33,000  Level Memphis Center
Sun 09:01:36 PM 34.8908 -86.7911 154° Southeast 457 526 33,000  Level Memphis Center
Sun 09:02:38 PM 34.7772 -86.7236 154° Southeast 455 524 33,000  Level Memphis Center
Sun 09:03:39 PM 34.6636 -86.6578 155° Southeast 454 522 33,000  Level Memphis Center
Sun 09:04:41 PM 34.5517 -86.5939 155° Southeast 448 516 33,000  Level Memphis Center
Sun 09:05:42 PM 34.4397 -86.5281 154° Southeast 448 516 33,000  Level Memphis Center
Sun 09:06:44 PM 34.3264 -86.4628 155° Southeast 448 516 33,000  Level Memphis Center
Sun 09:07:46 PM 34.2131 -86.3975 155° Southeast 448 516 33,000  Level Memphis Center
Sun 09:09:03 PM 34.0531 -86.3028 154° Southeast 447 514 33,000  Level Atlanta Center
Sun 09:10:03 PM 33.9394 -86.2372 154° Southeast 447 514 33,000  Level Atlanta Center
Sun 09:11:03 PM 33.8258 -86.1717 154° Southeast 442 509 33,000  Level Atlanta Center
Sun 09:12:03 PM 33.7164 -86.1092 155° Southeast 442 509 33,000  Level Atlanta Center
Sun 09:13:03 PM 33.6025 -86.0442 155° Southeast 442 509 33,000  Level Atlanta Center
Sun 09:14:03 PM 33.5033 -85.9844 153° Southeast 436 502 33,000  Level Atlanta Center
Sun 09:15:03 PM 33.3894 -85.9222 155° Southeast 441 507 33,000  Level Atlanta Center
Sun 09:16:03 PM 33.2717 -85.8550 154° Southeast 451 519 33,000  Level Atlanta Center
Sun 09:17:03 PM 33.1578 -85.7881 154° Southeast 457 526 33,000  Level Atlanta Center
Sun 09:18:03 PM 33.0417 -85.7264 156° South 457 526 33,000  Level Atlanta Center
Sun 09:19:03 PM 32.9133 -85.6522 154° Southeast 457 526 33,000  Level Atlanta Center
Sun 09:20:03 PM 32.7994 -85.5883 155° Southeast 457 526 33,000  Level Atlanta Center
Sun 09:21:03 PM 32.6875 -85.5247 154° Southeast 457 526 33,000  Level Atlanta Center
Sun 09:22:03 PM 32.5692 -85.4611 156° South 457 526 33,000  Level Atlanta Center
Sun 09:23:03 PM 32.4572 -85.4003 155° Southeast 452 520 33,000  Level Atlanta Center
Sun 09:24:03 PM 32.3450 -85.3369 155° Southeast 452 520 33,000  Level Atlanta Center
Sun 09:26:30 PM 32.0767 -85.1922 155° Southeast 444 511 33,000  Level Jacksonville Center
Sun 09:27:30 PM 31.9650 -85.1333 156° South 439 505 33,000  Level Jacksonville Center
Sun 09:28:30 PM 31.8575 -85.0744 155° Southeast 439 505 33,000  Level Jacksonville Center
Sun 09:29:30 PM 31.7458 -85.0106 154° Southeast 439 505 33,000  Level Jacksonville Center
Sun 09:30:30 PM 31.6300 -84.9494 156° South 444 511 33,000  Level Jacksonville Center
Sun 09:31:30 PM 31.5161 -84.8886 156° South 444 511 33,000  Level Jacksonville Center
Sun 09:32:30 PM 31.4044 -84.8278 155° Southeast 444 511 33,000  Level Jacksonville Center
Sun 09:33:30 PM 31.2925 -84.7669 155° Southeast 444 511 33,000  Level Jacksonville Center
Sun 09:34:30 PM 31.1806 -84.7042 154° Southeast 444 511 33,000  Level Jacksonville Center
Sun 09:35:30 PM 31.0686 -84.6486 157° South 444 511 33,000  Level Jacksonville Center
Sun 09:36:30 PM 30.9567 -84.5858 154° Southeast 444 511 33,000  Level Jacksonville Center
Sun 09:37:30 PM 30.8447 -84.5283 156° South 439 505 33,000  Level Jacksonville Center
Sun 09:38:30 PM 30.7286 -84.4658 155° Southeast 439 505 33,000  Level Jacksonville Center
Sun 09:39:30 PM 30.6186 -84.4086 156° South 439 505 33,000  Level Jacksonville Center
Sun 09:40:30 PM 30.5131 -84.3442 152° Southeast 439 505 33,000  Level Jacksonville Center
Sun 09:41:30 PM 30.4053 -84.2750 151° Southeast 439 505 33,000  Level Jacksonville Center
Sun 09:42:30 PM 30.2911 -84.1989 150° Southeast 439 505 33,000  Level Jacksonville Center
Sun 09:43:30 PM 30.1833 -84.1300 151° Southeast 434 499 33,000  Level Jacksonville Center
Sun 09:44:30 PM 30.0775 -84.0617 151° Southeast 434 499 33,000  Level Jacksonville Center
Sun 09:45:30 PM 29.9717 -83.9931 151° Southeast 434 499 33,000  Level Jacksonville Center
Sun 09:46:30 PM 29.8614 -83.9247 152° Southeast 439 505 33,000  Level Jacksonville Center
Sun 09:47:30 PM 29.7533 -83.8542 150° Southeast 439 505 33,000 -33 Level Jacksonville Center
Sun 09:49:30 PM 29.5372 -83.7136 150° Southeast 439 505 32,900 -633 Descending Jacksonville Center
Sun 09:50:30 PM 29.4292 -83.6436 151° Southeast 444 511 31,100 -1,900 Descending Jacksonville Center
Sun 09:51:30 PM 29.3253 -83.5761 150° Southeast 439 505 29,100 -2,000 Descending Jacksonville Center
Sun 09:52:30 PM 29.2233 -83.5136 152° Southeast 429 494 27,100 -1,650 Descending Jacksonville Center
Sun 09:53:30 PM 29.1214 -83.4464 150° Southeast 429 494 25,800 -1,350 Descending Jacksonville Center
Sun 09:54:30 PM 29.0172 -83.3817 151° Southeast 424 488 24,400 -1,700 Descending Jacksonville Center
Sun 09:55:30 PM 28.9172 -83.3172 151° Southeast 419 482 22,400 -1,850 Descending Jacksonville Center
Sun 09:56:30 PM 28.8194 -83.2553 151° Southeast 406 467 20,700 -1,600 Descending Jacksonville Center
Sun 09:57:30 PM 28.7214 -83.1933 151° Southeast 406 467 19,200 -1,660 Descending Jacksonville Center
Sun 09:58:51 PM 28.6000 -83.1167 151° Southeast 382 440 16,800 -2,000 Descending Tampa TRACON
Sun 09:59:45 PM 28.5167 -83.0667 152° Southeast 367 422 14,700 -2,100 Descending Tampa TRACON
Sun 10:00:51 PM 28.4167 -83.0167 156° South 347 399 12,600 -1,810 Descending Tampa TRACON
Sun 10:01:51 PM 28.3167 -83.0000 172° South 339 390 10,900 -1,300 Descending Tampa TRACON
Sun 10:02:51 PM 28.2333 -82.9667 161° South 321 369 10,000 -474 Descending Tampa TRACON
Sun 10:03:45 PM 28.1667 -82.9500 168° South 283 326 10,000 -842 Level Tampa TRACON
Sun 10:04:45 PM 28.0833 -82.9167 161° South 288 331 8,400 -1,650 Descending Tampa TRACON
Sun 10:05:45 PM 28.0167 -82.9000 168° South 288 331 6,700 -1,565 Descending Tampa TRACON
Sun 10:07:03 PM 27.9167 -82.8667 164° South 260 299 4,800 -1,500 Descending Tampa TRACON
Sun 10:07:45 PM 27.8667 -82.8500 164° South 241 277 3,700 -1,353 Descending Tampa TRACON
Sun 10:08:45 PM 27.8167 -82.8333 164° South 217 250 2,500 -773 Descending Tampa TRACON
Sun 10:09:57 PM 27.7500 -82.8000 156° South 192 221 2,000 -273 Descending Tampa TRACON
Sun 10:10:57 PM 27.7167 -82.7500 127° Southeast 198 228 1,900  Descending Tampa TRACON
Sun 10:11:57 PM 27.7167 -82.6833 90° East 197 227 2,000 53 Climbing Tampa TRACON
Sun 10:12:51 PM 27.7667 -82.6667 16° North 202 232 2,000 -200 Level Tampa TRACON
Sun 10:13:57 PM 27.8167 -82.6667 360° North 180 207 1,600 -550 Descending Tampa TRACON
Sun 10:14:51 PM 27.8500 -82.6833 336° Northwest 138 159 900 -737 Descending Tampa TRACON
Sun 10:15:51 PM 27.9000 -82.6833 360° North 137 158 200 -700 Descending Tampa TRACON

Login

Don't have an account? Register now (free) for customized features, flight alerts, and more!